Terminal Aerodrome Forecast
Issued by NWS

Home | Current Version | Previous Version | Text Only | Print | Product List | Glossary On
Versions: 1 2 3 4 5 6 7 8 9 10 11 12 13 14 15
853
FTUS41 KCAR 011720
TAFBHB
TAF
KBHB 011720Z 0118/0218 19011KT P6SM OVC060
     FM020300 17005KT P6SM VCSH OVC030
     FM021100 12009KT P6SM -RA OVC025
     FM021300 10012KT 5SM -RA BR OVC015=

USA.gov is the U.S. government's official web portal to all federal, state and local government web resources and services.